createdAt,value
2022-11-28T00:02:28.868Z,14.10
2022-11-28T00:07:30.642Z,14.47
2022-11-28T00:12:32.403Z,14.47
2022-11-28T00:17:34.054Z,12.93
2022-11-28T00:22:35.655Z,14.10
2022-11-28T00:27:37.278Z,13.17
2022-11-28T00:32:38.943Z,12.83
2022-11-28T00:37:40.505Z,13.43
2022-11-28T00:42:42.064Z,13.87
2022-11-28T00:47:43.675Z,14.23
2022-11-28T00:52:45.301Z,14.90
2022-11-28T00:57:46.963Z,14.30
2022-11-28T01:02:48.661Z,16.03
2022-11-28T01:07:50.415Z,14.77
2022-11-28T01:12:52.067Z,15.30
2022-11-28T01:17:53.780Z,15.27
2022-11-28T01:22:55.461Z,13.83
2022-11-28T01:27:57.058Z,15.60
2022-11-28T01:32:58.785Z,14.67
2022-11-28T01:38:00.442Z,15.00
2022-11-28T01:43:02.004Z,13.47
2022-11-28T01:48:04.279Z,13.53
2022-11-28T01:53:10.285Z,13.70
2022-11-28T01:58:12.785Z,14.00
2022-11-28T02:03:43.372Z,13.63
2022-11-28T02:08:45.385Z,14.47
2022-11-28T02:14:05.391Z,13.97
2022-11-28T02:19:46.932Z,13.40
2022-11-28T02:25:06.509Z,12.97
2022-11-28T02:30:11.467Z,11.90
2022-11-28T02:35:21.847Z,12.10
2022-11-28T02:40:41.382Z,12.00
2022-11-28T02:46:10.658Z,12.03
2022-11-28T02:51:14.882Z,11.43
2022-11-28T02:56:17.006Z,11.70
2022-11-28T03:01:30.325Z,11.70
2022-11-28T03:06:58.531Z,12.03
2022-11-28T03:12:37.848Z,13.20
2022-11-28T03:18:07.799Z,12.27
2022-11-28T03:23:13.237Z,13.13
2022-11-28T03:28:24.586Z,11.33
2022-11-28T03:33:30.558Z,12.20
2022-11-28T03:38:38.489Z,11.53
2022-11-28T03:43:47.010Z,11.23
2022-11-28T03:48:54.647Z,10.83
2022-11-28T03:54:22.981Z,10.37
2022-11-28T03:59:34.023Z,11.13
2022-11-28T04:04:48.938Z,11.03
2022-11-28T04:10:29.547Z,10.70
2022-11-28T04:15:46.194Z,11.13
2022-11-28T04:21:04.592Z,11.27
2022-11-28T04:26:19.139Z,11.23
2022-11-28T04:31:22.884Z,10.33
2022-11-28T04:36:26.887Z,10.73
2022-11-28T04:41:31.271Z,10.83
2022-11-28T19:07:08.151Z,12.33
2022-11-28T19:12:09.918Z,14.80
2022-11-28T19:17:12.257Z,19.97
2022-11-28T19:22:13.839Z,29.00
2022-11-28T19:27:15.488Z,52.07
2022-11-28T19:32:18.095Z,42.33
2022-11-28T19:37:19.746Z,39.63
2022-11-28T19:42:21.417Z,22.10
2022-11-28T19:47:23.253Z,22.23
2022-11-28T19:52:24.890Z,25.43
2022-11-28T19:57:26.724Z,25.03
2022-11-28T20:02:28.495Z,23.40
2022-11-28T20:07:30.229Z,21.93
2022-11-28T20:12:31.910Z,21.90
2022-11-28T20:17:33.498Z,23.67
2022-11-28T20:22:35.346Z,20.43
2022-11-28T20:27:36.990Z,18.40
2022-11-28T20:32:38.686Z,19.50
2022-11-28T20:37:40.423Z,18.97
2022-11-28T20:42:41.989Z,16.90
2022-11-28T20:47:49.507Z,15.07
2022-11-28T20:52:51.559Z,15.87
2022-11-28T20:57:53.146Z,16.67
2022-11-28T21:02:54.831Z,30.80
2022-11-28T21:07:56.964Z,27.80
2022-11-28T21:12:58.651Z,17.53
2022-11-28T21:18:00.322Z,17.97
2022-11-28T21:23:01.891Z,24.17
2022-11-28T21:28:04.113Z,21.80
2022-11-28T21:33:05.763Z,21.03
2022-11-28T21:38:08.148Z,21.43
2022-11-28T21:43:12.343Z,21.37
2022-11-28T21:48:13.923Z,19.93
2022-11-28T21:53:16.928Z,19.57
2022-11-28T21:58:22.387Z,19.37
2022-11-28T22:03:28.354Z,18.03
2022-11-28T22:08:30.881Z,20.30
2022-11-28T22:13:32.956Z,18.83
2022-11-28T22:18:34.711Z,19.10
2022-11-28T22:23:38.108Z,20.47
2022-11-28T22:28:41.562Z,20.30
2022-11-28T22:33:43.640Z,18.33
2022-11-28T22:38:46.467Z,18.00
2022-11-28T22:43:48.300Z,16.93
2022-11-28T22:48:50.648Z,18.73
2022-11-28T22:53:56.717Z,17.83
2022-11-28T22:58:58.446Z,18.67
2022-11-28T23:04:00.111Z,20.57
2022-11-28T23:09:05.457Z,19.77
2022-11-28T23:14:07.208Z,19.43
2022-11-28T23:19:15.663Z,20.57
2022-11-28T23:24:20.065Z,18.47
2022-11-28T23:29:21.803Z,18.97
2022-11-28T23:34:23.379Z,18.87
2022-11-28T23:39:25.123Z,17.40
2022-11-28T23:44:26.764Z,16.27
2022-11-28T23:49:28.455Z,16.20
2022-11-28T23:54:30.116Z,15.67
2022-11-28T23:59:31.706Z,14.00
